Time;durP1;ratioP1;P1;durP2;ratioP2;P2;SDS_P1;SDS_P2;PMS_P1;PMS_P2;Temp;Humidity;BMP_temperature;BMP_pressure;BME280_temperature;BME280_humidity;BME280_pressure;Samples;Min_cycle;Max_cycle;Signal;HPM_P1;HPM_P2
2022/05/23 00:02:06;;;;;;;4.62;1.52;;;;;;;17.24;44.94;99518.31;4452341;32;35579;-84
2022/05/23 00:04:36;;;;;;;2.10;1.20;;;;;;;17.19;44.85;99515.47;4444090;32;33192;-82
2022/05/23 00:07:11;;;;;;;4.05;1.67;;;;;;;17.16;44.92;99508.50;4464766;32;33498;-83
2022/05/23 00:09:40;;;;;;;6.28;1.70;;;;;;;17.19;44.70;99507.97;4455766;32;34172;-83
2022/05/23 00:12:11;;;;;;;4.05;1.50;;;;;;;17.26;44.46;99514.19;4448567;32;34792;-83
2022/05/23 00:14:42;;;;;;;2.97;1.40;;;;;;;17.30;44.40;99515.34;4447161;32;34739;-83
2022/05/23 00:17:12;;;;;;;3.37;1.50;;;;;;;17.27;44.46;99513.09;4448850;32;33294;-84
2022/05/23 00:19:41;;;;;;;3.12;1.45;;;;;;;17.13;44.69;99518.16;4448974;32;32048;-84
2022/05/23 00:22:14;;;;;;;2.87;1.25;;;;;;;17.19;44.43;99513.53;4439970;32;33190;-84
2022/05/23 00:24:42;;;;;;;3.40;1.45;;;;;;;17.20;44.45;99504.13;4440089;32;34703;-84
2022/05/23 00:27:16;;;;;;;4.03;1.50;;;;;;;17.13;44.61;99514.56;4439910;32;31733;-84
2022/05/23 00:29:53;;;;;;;4.72;1.90;;;;;;;17.07;44.76;99512.81;4440422;32;33862;-84
2022/05/23 00:35:18;;;;;;;3.22;1.52;;;;;;;17.10;44.82;99513.13;4441655;32;32495;-83
2022/05/23 00:37:52;;;;;;;4.80;1.60;;;;;;;17.03;45.07;99501.38;4440248;32;31832;-84
2022/05/23 00:40:38;;;;;;;6.55;1.73;;;;;;;17.14;44.71;99499.59;4439910;32;34474;-84
2022/05/23 00:43:13;;;;;;;7.05;2.20;;;;;;;17.25;44.02;99506.13;4452494;32;34367;-84
2022/05/23 00:45:45;;;;;;;2.80;1.50;;;;;;;17.21;43.89;99497.47;4440047;32;32469;-84
2022/05/23 00:48:15;;;;;;;3.83;1.30;;;;;;;17.42;43.08;99496.66;4426165;32;33447;-84
2022/05/23 00:50:49;;;;;;;3.87;1.77;;;;;;;17.42;42.97;99502.19;4439256;32;33779;-84
2022/05/23 00:53:24;;;;;;;4.45;1.60;;;;;;;17.29;43.31;99507.28;4439372;32;34488;-84
2022/05/23 00:55:56;;;;;;;5.80;1.70;;;;;;;17.17;43.42;99501.84;4427511;32;33438;-84
2022/05/23 00:58:36;;;;;;;4.43;1.70;;;;;;;16.87;44.17;99502.28;4441013;32;32958;-84
2022/05/23 01:01:11;;;;;;;3.35;1.52;;;;;;;16.52;45.64;99508.06;4454426;32;32685;-84
2022/05/23 01:03:39;;;;;;;4.90;1.98;;;;;;;16.66;45.51;99503.91;4454262;32;32717;-84
2022/05/23 01:06:09;;;;;;;4.32;1.70;;;;;;;16.76;45.50;99508.75;4440838;32;32412;-84
2022/05/23 01:08:40;;;;;;;5.22;1.50;;;;;;;16.65;45.91;99512.47;4440727;32;32702;-84
2022/05/23 01:11:11;;;;;;;3.53;1.50;;;;;;;16.60;46.13;99504.87;4453153;32;33713;-83
2022/05/23 01:13:41;;;;;;;5.37;1.55;;;;;;;16.49;46.26;99503.03;4440548;32;32931;-84
2022/05/23 01:16:13;;;;;;;6.55;1.83;;;;;;;16.43;46.29;99509.56;4429108;32;34717;-83
2022/05/23 01:18:43;;;;;;;3.22;1.58;;;;;;;16.62;45.72;99504.63;4429103;32;31635;-83
2022/05/23 01:21:18;;;;;;;3.47;1.58;;;;;;;16.59;45.88;99508.75;4441451;32;33712;-83
2022/05/23 01:24:00;;;;;;;4.43;1.52;;;;;;;16.58;45.80;99507.06;4441568;32;34357;-83
2022/05/23 01:26:32;;;;;;;4.55;1.77;;;;;;;16.61;45.73;99506.56;4441362;32;34100;-83
2022/05/23 01:29:00;;;;;;;3.17;1.40;;;;;;;16.40;46.26;99512.84;4441443;32;31817;-83
2022/05/23 01:31:31;;;;;;;4.43;1.67;;;;;;;16.56;45.60;99508.41;4441803;32;33805;-83
2022/05/23 01:34:02;;;;;;;5.00;1.75;;;;;;;16.38;46.01;99503.94;4429067;32;33300;-83
2022/05/23 01:36:31;;;;;;;5.28;1.83;;;;;;;16.23;46.47;99489.87;4441664;32;34522;-83
2022/05/23 01:39:05;;;;;;;6.12;1.70;;;;;;;16.21;46.59;99489.28;4440988;32;33581;-83
2022/05/23 01:41:33;;;;;;;3.33;1.65;;;;;;;16.37;46.16;99485.66;4441254;32;34219;-83
2022/05/23 01:44:03;;;;;;;4.07;1.70;;;;;;;16.45;46.10;99483.31;4440793;32;33890;-83
2022/05/23 01:46:31;;;;;;;3.85;1.62;;;;;;;16.55;45.40;99477.09;4454603;32;34204;-83
2022/05/23 01:48:59;;;;;;;4.30;1.67;;;;;;;16.29;45.97;99483.28;4441814;32;32328;-83
2022/05/23 01:51:30;;;;;;;5.37;1.58;;;;;;;16.29;46.33;99483.28;4441876;32;34807;-83
2022/05/23 01:54:00;;;;;;;4.40;1.75;;;;;;;16.28;46.50;99471.38;4441427;32;33149;-83
2022/05/23 01:56:29;;;;;;;4.32;1.75;;;;;;;16.12;47.00;99473.06;4441968;32;34701;-83
2022/05/23 02:01:49;;;;;;;3.75;1.87;;;;;;;16.11;46.91;99463.09;4443535;32;32044;-83
2022/05/23 02:04:21;;;;;;;3.67;1.50;;;;;;;16.22;46.53;99472.41;4429122;32;33600;-83
2022/05/23 02:06:51;;;;;;;5.93;1.62;;;;;;;16.08;46.86;99465.53;4428888;32;32500;-83
2022/05/23 02:09:26;;;;;;;3.78;1.83;;;;;;;16.07;46.73;99474.91;4441458;32;33151;-83
2022/05/23 02:11:59;;;;;;;5.50;2.10;;;;;;;16.05;46.61;99477.94;4441618;32;33857;-83
2022/05/23 02:14:28;;;;;;;5.30;2.15;;;;;;;16.07;46.59;99472.16;4440870;32;33914;-83
2022/05/23 02:16:59;;;;;;;7.00;1.60;;;;;;;16.22;46.21;99466.03;4441427;32;33717;-83
2022/05/23 02:19:31;;;;;;;5.25;1.70;;;;;;;15.87;47.07;99474.53;4441255;32;33140;-83
2022/05/23 02:22:04;;;;;;;5.95;1.77;;;;;;;15.92;46.65;99471.88;4441460;32;32240;-83
2022/05/23 02:24:32;;;;;;;5.12;1.77;;;;;;;15.96;46.51;99475.81;4453803;32;34506;-83
2022/05/23 02:27:05;;;;;;;4.15;1.75;;;;;;;16.16;46.10;99475.34;4440841;32;33806;-83
2022/05/23 02:29:39;;;;;;;4.12;1.80;;;;;;;16.06;46.46;99471.31;4453972;32;33476;-84
2022/05/23 02:32:10;;;;;;;4.68;1.62;;;;;;;16.07;46.44;99474.91;4440674;32;32068;-84
2022/05/23 02:34:41;;;;;;;3.60;1.62;;;;;;;15.94;46.78;99466.94;4441529;32;35299;-84
2022/05/23 02:37:12;;;;;;;3.85;1.73;;;;;;;16.03;46.45;99469.03;4441031;32;34194;-83
2022/05/23 02:39:41;;;;;;;3.58;1.60;;;;;;;15.97;46.54;99470.03;4440622;32;32626;-83
2022/05/23 02:42:15;;;;;;;4.87;1.50;;;;;;;15.91;46.63;99471.03;4442083;32;33642;-83
2022/05/23 02:44:44;;;;;;;3.50;1.67;;;;;;;15.73;47.10;99476.78;4428297;32;34010;-83
2022/05/23 02:47:17;;;;;;;3.95;1.50;;;;;;;15.63;47.21;99465.50;4441230;32;32353;-83
2022/05/23 02:49:49;;;;;;;4.37;1.50;;;;;;;15.64;47.10;99469.97;4441340;32;33896;-83
2022/05/23 02:52:17;;;;;;;3.45;1.50;;;;;;;15.55;47.22;99468.66;4428326;32;33208;-83
2022/05/23 02:54:50;;;;;;;3.87;1.60;;;;;;;15.52;47.33;99464.47;4428825;32;32822;-83
2022/05/23 02:57:18;;;;;;;4.32;1.60;;;;;;;15.60;47.11;99461.31;4440897;32;33307;-83
2022/05/23 02:59:46;;;;;;;3.62;1.55;;;;;;;15.60;47.10;99464.06;4441073;32;33411;-83
2022/05/23 03:05:00;;;;;;;4.25;1.70;;;;;;;15.64;47.25;99459.72;4442930;32;32958;-83
2022/05/23 03:07:31;;;;;;;4.55;1.70;;;;;;;15.68;47.14;99471.16;4441404;32;34052;-92
2022/05/23 03:09:59;;;;;;;2.70;1.52;;;;;;;15.66;47.17;99468.63;4441127;32;32783;-90
2022/05/23 03:12:34;;;;;;;4.30;1.70;;;;;;;15.61;47.48;99465.75;4440440;32;32102;-92
2022/05/23 03:15:04;;;;;;;3.70;1.90;;;;;;;15.45;47.88;99470.16;4453660;32;35535;-92
2022/05/23 03:17:33;;;;;;;2.87;1.60;;;;;;;15.26;48.15;99474.16;4441285;32;34449;-90
2022/05/23 03:20:02;;;;;;;9.18;2.20;;;;;;;15.14;48.58;99482.50;4427124;32;32889;-92
2022/05/23 03:28:07;;;;;;;4.97;2.35;;;;;;;15.41;48.26;99477.25;4453657;32;33891;-90
2022/05/23 03:30:36;;;;;;;4.72;2.03;;;;;;;15.41;48.38;99474.50;4440340;32;33492;-91
2022/05/23 03:33:07;;;;;;;8.30;3.10;;;;;;;15.23;48.73;99479.34;4440700;32;33746;-91
2022/05/23 03:35:37;;;;;;;6.60;2.12;;;;;;;15.15;48.87;99488.84;4445822;32;33713;-91
2022/05/23 03:38:06;;;;;;;3.75;2.00;;;;;;;15.26;48.76;99481.63;4447771;32;35256;-89
2022/05/23 03:40:35;;;;;;;5.22;2.10;;;;;;;15.19;49.19;99484.53;4449567;32;34175;-92
2022/05/23 03:43:07;;;;;;;5.70;2.10;;;;;;;15.23;49.17;99480.19;4461733;32;34064;-91
2022/05/23 03:45:36;;;;;;;4.82;2.08;;;;;;;15.31;49.06;99485.34;4450329;32;34400;-90
2022/05/23 03:48:09;;;;;;;5.05;2.10;;;;;;;15.44;48.71;99475.91;4449731;32;34006;-92
2022/05/23 03:50:38;;;;;;;4.62;2.03;;;;;;;15.30;49.21;99472.59;4460049;32;33428;-91
2022/05/23 03:53:10;;;;;;;4.32;1.90;;;;;;;15.20;49.50;99477.91;4444628;32;33172;-93
2022/05/23 03:55:39;;;;;;;6.28;2.17;;;;;;;15.31;49.18;99477.03;4442168;32;32982;-92
2022/05/23 03:58:09;;;;;;;4.35;2.30;;;;;;;15.32;49.30;99478.72;4441367;32;34642;-92
2022/05/23 04:00:38;;;;;;;5.43;2.00;;;;;;;15.36;49.35;99479.06;4441188;32;32419;-92
2022/05/23 04:03:06;;;;;;;6.07;2.10;;;;;;;15.42;49.16;99480.84;4441245;32;33448;-92
2022/05/23 04:05:34;;;;;;;6.20;2.30;;;;;;;15.47;48.95;99479.03;4427977;32;33608;-92
2022/05/23 04:08:12;;;;;;;4.60;2.15;;;;;;;15.50;48.89;99474.94;4441453;32;32539;-91
2022/05/23 04:10:43;;;;;;;4.40;2.10;;;;;;;15.53;49.07;99476.38;4440388;32;31924;-93
2022/05/23 04:13:12;;;;;;;4.43;2.08;;;;;;;15.66;48.34;99482.47;4440132;32;32063;-91
2022/05/23 04:15:41;;;;;;;4.93;1.90;;;;;;;15.55;48.32;99474.19;4440924;32;35407;-83
2022/05/23 04:18:15;;;;;;;6.85;2.15;;;;;;;15.58;48.45;99470.97;4440515;32;32364;-83
2022/05/23 04:20:49;;;;;;;5.30;1.98;;;;;;;15.65;49.44;99469.72;4441202;32;33154;-84
2022/05/23 04:23:20;;;;;;;4.82;2.20;;;;;;;15.67;48.49;99467.53;4428207;32;32343;-83
2022/05/23 04:25:51;;;;;;;6.50;2.30;;;;;;;15.80;48.13;99464.47;4440039;32;34500;-83
2022/05/23 04:28:24;;;;;;;5.05;2.00;;;;;;;15.81;48.39;99462.53;4440692;32;33100;-83
2022/05/23 04:30:53;;;;;;;5.72;2.30;;;;;;;15.86;48.09;99462.63;4440400;32;32769;-83
2022/05/23 04:36:15;;;;;;;8.48;2.40;;;;;;;15.96;47.80;99468.34;4456788;32;32839;-86
2022/05/23 04:38:48;;;;;;;4.10;2.15;;;;;;;16.01;48.61;99462.06;4443687;32;32422;-83
2022/05/23 04:41:16;;;;;;;5.82;2.65;;;;;;;15.96;49.62;99460.06;4452794;32;31706;-84
2022/05/23 04:43:47;;;;;;;7.78;2.50;;;;;;;16.05;49.72;99455.78;4441793;32;32940;-83
2022/05/23 04:46:20;;;;;;;5.80;3.05;;;;;;;16.23;49.38;99460.25;4430088;32;34223;-84
2022/05/23 04:51:54;;;;;;;9.02;4.82;;;;;;;16.33;49.33;99473.41;4446377;32;32147;-83
2022/05/23 04:54:26;;;;;;;8.18;4.32;;;;;;;16.59;48.28;99469.13;4430497;32;32604;-83
2022/05/23 04:56:55;;;;;;;9.05;5.80;;;;;;;16.80;47.49;99476.69;4429261;32;32620;-83
2022/05/23 04:59:30;;;;;;;8.68;3.70;;;;;;;16.92;47.23;99473.78;4442161;32;32190;-84
2022/05/23 05:01:58;;;;;;;8.82;3.65;;;;;;;16.90;47.10;99471.25;4442077;32;34172;-83
2022/05/23 05:04:29;;;;;;;11.18;6.50;;;;;;;16.97;46.77;99477.44;4429315;32;32061;-84
2022/05/23 05:07:01;;;;;;;15.27;8.73;;;;;;;16.98;46.76;99481.06;4454321;32;34472;-90
2022/05/23 05:09:51;;;;;;;4.35;2.40;;;;;;;17.09;46.65;99482.87;4454178;32;33621;-86
2022/05/23 05:12:18;;;;;;;4.60;2.10;;;;;;;17.45;51.05;99493.34;4441814;32;33198;-81
2022/05/23 05:14:46;;;;;;;5.35;2.42;;;;;;;17.53;48.61;99488.44;4442413;32;33801;-82
2022/05/23 05:17:15;;;;;;;5.70;2.60;;;;;;;17.60;47.58;99491.84;4440939;32;35083;-80
2022/05/23 05:19:44;;;;;;;7.25;2.60;;;;;;;17.69;47.17;99496.69;4452465;32;34062;-81
2022/05/23 05:22:14;;;;;;;7.68;2.47;;;;;;;17.69;46.39;99487.53;4440102;32;32445;-80
2022/05/23 05:24:43;;;;;;;7.37;3.00;;;;;;;17.76;47.35;99488.16;4427305;32;32952;-83
2022/05/23 05:27:14;;;;;;;7.57;2.47;;;;;;;18.09;46.68;99485.19;4427650;32;34442;-84
2022/05/23 05:29:46;;;;;;;5.45;2.22;;;;;;;18.20;45.84;99488.06;4453718;32;33746;-82
2022/05/23 05:32:18;;;;;;;8.27;2.50;;;;;;;18.44;44.66;99487.44;4454277;32;31348;-83
2022/05/23 05:34:52;;;;;;;5.05;2.30;;;;;;;18.24;45.56;99487.25;4454177;32;33271;-84
2022/05/23 05:37:27;;;;;;;5.65;2.60;;;;;;;18.68;44.77;99489.87;4441530;32;32971;-83
2022/05/23 05:39:55;;;;;;;5.18;1.98;;;;;;;18.51;45.74;99490.00;4454382;32;33723;-81
2022/05/23 05:42:30;;;;;;;7.75;4.22;;;;;;;18.58;45.54;99492.53;4453749;32;33379;-81
2022/05/23 05:45:05;;;;;;;5.07;2.55;;;;;;;18.73;45.63;99481.56;4454856;32;33388;-78
2022/05/23 05:47:34;;;;;;;5.10;2.50;;;;;;;18.86;45.17;99486.62;4442002;32;33788;-81
2022/05/23 05:50:15;;;;;;;6.05;2.35;;;;;;;18.97;44.63;99487.53;4441508;32;33320;-77
2022/05/23 05:52:46;;;;;;;5.12;2.15;;;;;;;19.12;43.65;99487.62;4454015;32;31557;-78
2022/05/23 05:55:15;;;;;;;6.10;1.55;;;;;;;19.15;42.83;99480.69;4454424;32;33420;-83
2022/05/23 05:57:48;;;;;;;4.53;1.60;;;;;;;19.12;40.56;99487.62;4454435;32;34502;-80
2022/05/23 06:00:20;;;;;;;6.40;1.50;;;;;;;19.21;40.74;99493.53;4454074;32;33965;-79
2022/05/23 06:02:53;;;;;;;4.07;1.50;;;;;;;19.63;38.78;99488.72;4454049;32;32633;-80
2022/05/23 06:05:21;;;;;;;4.18;1.40;;;;;;;19.33;40.30;99486.62;4454561;32;32593;-79
2022/05/23 06:13:23;;;;;;;3.83;1.37;;;;;;;19.89;36.81;99502.72;4454109;32;33559;-79
2022/05/23 06:15:53;;;;;;;3.45;1.42;;;;;;;19.71;37.30;99501.28;4454221;32;33634;-79
2022/05/23 06:18:24;;;;;;;5.43;1.60;;;;;;;19.79;37.69;99494.34;4441655;32;35357;-79
2022/05/23 06:20:58;;;;;;;6.15;1.62;;;;;;;19.88;37.54;99492.69;4441525;32;34525;-90
2022/05/23 06:23:31;;;;;;;4.57;1.48;;;;;;;20.06;37.32;99495.81;4454480;32;33759;-91
2022/05/23 06:26:06;;;;;;;4.40;1.42;;;;;;;20.04;36.42;99498.03;4441623;32;33329;-95
2022/05/23 06:28:42;;;;;;;4.35;1.45;;;;;;;20.17;36.22;99501.38;4441929;32;34309;-93
2022/05/23 06:31:15;;;;;;;3.95;1.52;;;;;;;20.19;35.83;99504.72;4443210;32;34467;-92
2022/05/23 06:33:46;;;;;;;8.35;1.58;;;;;;;20.09;37.39;99493.56;4443114;32;31364;-93
2022/05/23 06:36:18;;;;;;;4.90;1.60;;;;;;;20.28;36.98;99497.47;4444490;32;32353;-94
2022/05/23 06:38:47;;;;;;;4.85;1.67;;;;;;;20.41;36.83;99491.41;4443713;32;32989;-95
2022/05/23 06:41:18;;;;;;;3.70;1.58;;;;;;;20.45;36.81;99481.34;4444181;32;33645;-95
2022/05/23 06:43:54;;;;;;;5.25;1.67;;;;;;;20.36;37.50;99481.03;4444530;32;31863;-94
2022/05/23 06:46:25;;;;;;;4.72;1.73;;;;;;;20.37;38.06;99481.88;4456677;32;33588;-95
2022/05/23 06:48:56;;;;;;;7.53;1.80;;;;;;;20.51;38.20;99483.03;4444302;32;33099;-94
2022/05/23 06:51:27;;;;;;;7.65;1.70;;;;;;;20.60;37.40;99470.19;4444123;32;32877;-95
2022/05/23 06:53:57;;;;;;;6.97;1.77;;;;;;;20.78;36.84;99468.78;4445552;32;31899;-94
2022/05/23 06:56:28;;;;;;;5.72;1.70;;;;;;;20.75;37.08;99469.34;4443563;32;33620;-95
2022/05/23 06:58:57;;;;;;;3.47;1.27;;;;;;;20.93;36.76;99467.91;4443292;32;32923;-94
2022/05/23 07:01:25;;;;;;;6.60;1.83;;;;;;;21.11;35.48;99472.88;4441954;32;32284;-94
2022/05/23 07:03:56;;;;;;;3.80;1.50;;;;;;;20.56;37.11;99466.31;4444135;32;31849;-94
2022/05/23 07:14:56;;;;;;;5.25;1.80;;;;;;;21.15;35.63;99456.41;4458797;32;33339;-94
2022/05/23 07:17:28;;;;;;;5.55;1.65;;;;;;;21.36;35.08;99455.25;4443959;32;32585;-93
2022/05/23 07:20:00;;;;;;;4.45;1.45;;;;;;;21.38;35.19;99461.38;4443738;32;32916;-93
2022/05/23 07:22:31;;;;;;;70.25;5.18;;;;;;;21.33;34.55;99459.44;4443427;32;32358;-93
2022/05/23 07:25:03;;;;;;;5.18;1.60;;;;;;;21.42;35.87;99458.88;4444057;32;32823;-91
2022/05/23 07:27:35;;;;;;;7.55;4.37;;;;;;;21.33;33.91;99453.88;4456097;32;34220;-88
2022/05/23 07:30:04;;;;;;;9.40;2.03;;;;;;;21.30;35.58;99443.28;4441555;32;33287;-91
2022/05/23 07:32:35;;;;;;;3.55;1.65;;;;;;;21.63;34.40;99446.44;4443188;32;33285;-90
2022/05/23 07:35:09;;;;;;;32.85;3.28;;;;;;;21.65;32.65;99444.19;4443653;32;32498;-91
2022/05/23 07:37:38;;;;;;;26.50;2.58;;;;;;;21.76;33.15;99443.03;4443373;32;33060;-90
2022/05/23 07:40:07;;;;;;;5.82;1.75;;;;;;;21.62;34.42;99445.63;4443332;32;34729;-92
2022/05/23 07:42:42;;;;;;;13.00;2.17;;;;;;;21.75;33.32;99440.53;4461569;32;33192;-91
2022/05/23 07:45:11;;;;;;;9.77;1.83;;;;;;;21.91;33.27;99444.87;4447272;32;33267;-91
2022/05/23 07:47:48;;;;;;;7.97;2.10;;;;;;;22.16;32.06;99441.94;4443670;32;32140;-88
2022/05/23 07:50:19;;;;;;;4.00;1.33;;;;;;;22.01;32.81;99442.91;4443412;32;33486;-87
2022/05/23 08:01:21;;;;;;;9.25;2.75;;;;;;;22.02;32.84;99427.81;4457700;32;33882;-88
2022/05/23 08:03:53;;;;;;;4.93;2.10;;;;;;;22.28;31.95;99430.37;4443259;32;33231;-88
2022/05/23 08:06:24;;;;;;;8.07;1.77;;;;;;;22.32;32.20;99434.25;4456009;32;33488;-87
2022/05/23 08:08:57;;;;;;;6.47;1.62;;;;;;;22.61;32.01;99426.72;4455714;32;33387;-88
2022/05/23 08:11:25;;;;;;;5.28;1.58;;;;;;;22.82;31.15;99420.94;4443352;32;34305;-87
2022/05/23 08:13:58;;;;;;;5.03;1.67;;;;;;;22.84;30.82;99421.47;4442726;32;34019;-88
2022/05/23 08:16:30;;;;;;;4.55;1.30;;;;;;;22.84;30.95;99413.91;4442943;32;31723;-87
2022/05/23 08:19:06;;;;;;;13.18;8.02;;;;;;;22.66;31.62;99417.44;4456089;32;32233;-87
2022/05/23 08:21:40;;;;;;;7.50;2.60;;;;;;;22.93;31.81;99411.28;4455625;32;32938;-87
2022/05/23 08:24:13;;;;;;;6.15;2.37;;;;;;;23.12;32.53;99420.59;4455738;32;32154;-87
2022/05/23 08:26:41;;;;;;;10.93;4.47;;;;;;;22.93;30.14;99411.28;4455298;32;33155;-87
2022/05/23 08:29:09;;;;;;;6.37;2.17;;;;;;;23.20;31.29;99411.53;4455814;32;33871;-87
2022/05/23 08:31:47;;;;;;;2.58;1.20;;;;;;;23.38;30.61;99409.09;4444124;32;32755;-84
2022/05/23 08:34:22;;;;;;;4.25;1.45;;;;;;;23.43;30.62;99407.03;4443173;32;33677;-85
2022/05/23 08:36:52;;;;;;;5.25;1.50;;;;;;;22.99;30.15;99401.72;4442865;32;33299;-85
2022/05/23 08:39:20;;;;;;;3.55;1.50;;;;;;;23.35;29.97;99407.72;4442907;32;32282;-85
2022/05/23 08:41:50;;;;;;;4.45;1.40;;;;;;;23.49;29.82;99400.22;4442931;32;33361;-84
2022/05/23 08:44:29;;;;;;;3.97;1.48;;;;;;;23.74;30.03;99395.44;4443555;32;33660;-84
2022/05/23 08:47:05;;;;;;;4.10;1.05;;;;;;;23.45;30.01;99398.31;4468284;32;33369;-85
2022/05/23 08:49:56;;;;;;;6.25;1.52;;;;;;;23.88;29.41;99391.56;4468288;32;34463;-84
2022/05/23 08:52:30;;;;;;;6.27;1.50;;;;;;;23.67;29.22;99379.00;4455158;32;34325;-85
2022/05/23 08:55:09;;;;;;;6.50;1.67;;;;;;;23.53;29.34;99381.72;4455835;32;32225;-84
2022/05/23 08:57:54;;;;;;;6.37;1.37;;;;;;;23.71;29.52;99382.84;4455202;32;33099;-85
2022/05/23 09:00:35;;;;;;;5.05;1.73;;;;;;;24.12;28.79;99382.19;4455125;32;32294;-85
2022/05/23 09:03:20;;;;;;;5.47;2.60;;;;;;;23.88;28.02;99374.75;4455137;32;35002;-85
2022/05/23 09:05:54;;;;;;;6.45;1.60;;;;;;;24.01;28.87;99380.72;4442685;32;33040;-85
2022/05/23 09:08:55;;;;;;;3.70;1.62;;;;;;;24.00;27.65;99371.47;4444518;32;33326;-85
2022/05/23 09:11:48;;;;;;;14.73;3.30;;;;;;;24.36;27.36;99363.31;4442135;32;33309;-85
2022/05/23 09:14:18;;;;;;;4.43;1.40;;;;;;;24.50;28.24;99368.94;4467651;32;34234;-85
2022/05/23 09:16:52;;;;;;;5.37;2.50;;;;;;;24.76;27.98;99369.28;4455311;32;32889;-85
2022/05/23 09:19:28;;;;;;;6.65;2.35;;;;;;;24.74;27.93;99374.38;4444440;32;31431;-85
2022/05/23 09:22:24;;;;;;;4.72;1.80;;;;;;;24.78;28.07;99367.81;4470024;32;33967;-85
2022/05/23 09:25:01;;;;;;;16.73;9.00;;;;;;;24.91;27.02;99371.78;4458205;32;35115;-85
2022/05/23 09:27:37;;;;;;;4.35;1.70;;;;;;;25.17;27.36;99361.72;4457067;32;33960;-85
2022/05/23 09:30:17;;;;;;;6.10;1.37;;;;;;;25.30;28.24;99367.66;4457131;32;33400;-85
2022/05/23 09:33:08;;;;;;;6.47;1.42;;;;;;;25.10;26.62;99357.69;4457069;32;33475;-86
2022/05/23 09:35:46;;;;;;;7.95;1.75;;;;;;;25.38;26.63;99361.25;4460898;32;35106;-86
2022/05/23 09:38:27;;;;;;;7.32;3.30;;;;;;;25.70;26.61;99363.94;4456860;32;33743;-86
2022/05/23 09:40:56;;;;;;;3.58;1.30;;;;;;;25.77;26.85;99366.31;4457271;32;33848;-86
2022/05/23 09:49:18;;;;;;;6.18;1.35;;;;;;;25.80;25.72;99360.87;4458990;32;32049;-86
2022/05/23 09:51:54;;;;;;;6.22;1.62;;;;;;;26.17;26.25;99359.69;4456726;32;32152;-86
2022/05/23 09:54:44;;;;;;;7.47;1.90;;;;;;;26.48;25.89;99350.47;4457007;32;33623;-86
2022/05/23 09:57:36;;;;;;;6.72;2.45;;;;;;;26.71;23.90;99348.41;4469875;32;34524;-86
2022/05/23 10:00:06;;;;;;;8.20;1.90;;;;;;;26.57;24.32;99346.56;4448009;32;32277;-85
2022/05/23 10:02:43;;;;;;;6.60;1.85;;;;;;;26.63;23.85;99347.25;4457550;32;33382;-85
2022/05/23 10:05:42;;;;;;;8.60;2.08;;;;;;;26.50;24.08;99351.00;4457138;32;33550;-86
2022/05/23 10:08:12;;;;;;;4.40;1.73;;;;;;;26.60;23.56;99339.47;4429727;32;33520;-85
2022/05/23 10:11:05;;;;;;;4.43;1.60;;;;;;;26.76;23.91;99339.84;4456547;32;32609;-86
2022/05/23 10:13:35;;;;;;;6.20;1.50;;;;;;;26.80;22.89;99338.84;4469658;32;33469;-85
2022/05/23 10:16:23;;;;;;;5.65;1.60;;;;;;;26.97;23.77;99340.94;4456323;32;33577;-86
2022/05/23 10:18:54;;;;;;;5.20;1.48;;;;;;;26.88;24.03;99337.25;4444075;32;32870;-86
2022/05/23 10:21:43;;;;;;;8.20;1.40;;;;;;;27.10;23.39;99331.56;4443937;32;32925;-86
2022/05/23 10:24:18;;;;;;;5.15;1.73;;;;;;;27.40;24.96;99335.41;4456914;32;33341;-83
2022/05/23 10:26:50;;;;;;;6.68;1.52;;;;;;;27.37;24.30;99332.41;4469436;32;33715;-85
2022/05/23 10:29:53;;;;;;;5.72;1.65;;;;;;;27.22;23.15;99325.28;4443916;32;32841;-85
2022/05/23 10:32:41;;;;;;;4.75;1.48;;;;;;;27.50;22.49;99328.63;4456600;32;33584;-85
2022/05/23 10:36:04;;;;;;;3.30;1.40;;;;;;;27.57;22.67;99331.78;4469522;32;32558;-85
2022/05/23 10:42:09;;;;;;;8.95;4.10;;;;;;;27.77;22.96;99321.88;4460314;32;33896;-85
2022/05/23 10:44:50;;;;;;;6.72;1.90;;;;;;;27.87;23.45;99315.91;4407551;32;34749;-86
2022/05/23 10:47:56;;;;;;;4.72;1.60;;;;;;;28.19;21.93;99312.53;4457284;32;33466;-86
2022/05/23 10:51:05;;;;;;;6.07;1.58;;;;;;;28.24;20.71;99305.91;4474565;32;34211;-89
2022/05/23 10:54:08;;;;;;;4.75;1.83;;;;;;;28.40;21.07;99303.38;4469358;32;34305;-87
2022/05/23 10:56:57;;;;;;;4.28;1.60;;;;;;;28.51;22.11;99299.03;4473248;32;34022;-87
2022/05/23 10:59:58;;;;;;;4.85;1.42;;;;;;;28.88;22.32;99293.75;4443886;32;32724;-88
2022/05/23 11:02:41;;;;;;;6.20;1.80;;;;;;;28.99;21.04;99295.84;4456162;32;32205;-86
2022/05/23 11:05:16;;;;;;;4.62;1.48;;;;;;;29.20;21.81;99284.59;4456556;32;35287;-88
2022/05/23 11:08:15;;;;;;;4.22;1.37;;;;;;;29.43;21.93;99273.78;4456302;32;32465;-92
2022/05/23 11:10:57;;;;;;;3.33;1.40;;;;;;;29.24;21.13;99270.59;4442950;32;33371;-85
2022/05/23 11:13:29;;;;;;;5.25;1.60;;;;;;;29.32;21.21;99272.50;4427767;32;33190;-86
2022/05/23 11:16:23;;;;;;;3.42;1.10;;;;;;;29.21;22.47;99271.28;4428370;32;34257;-88
2022/05/23 11:18:57;;;;;;;6.22;2.83;;;;;;;28.87;22.12;99278.78;4450110;32;34781;-87
2022/05/23 11:21:47;;;;;;;6.40;2.70;;;;;;;29.05;20.92;99274.72;4453363;32;33419;-87
2022/05/23 11:24:18;;;;;;;4.22;1.52;;;;;;;29.26;20.33;99274.72;4415426;32;34496;-86
2022/05/23 11:35:52;;;;;;;5.22;1.50;;;;;;;29.38;21.37;99266.31;4442419;32;31983;-87
2022/05/23 11:38:20;;;;;;;5.93;1.58;;;;;;;29.33;20.85;99274.16;4440664;32;32864;-88
2022/05/23 11:41:02;;;;;;;4.95;1.35;;;;;;;29.12;20.69;99272.16;4427144;32;32393;-87
2022/05/23 11:43:33;;;;;;;4.00;1.20;;;;;;;29.36;21.45;99265.00;4453307;32;34111;-87
2022/05/23 11:46:09;;;;;;;5.65;1.50;;;;;;;29.33;20.72;99268.50;4428027;32;31687;-87
2022/05/23 11:48:41;;;;;;;4.12;1.50;;;;;;;29.27;20.32;99255.75;4440905;32;34225;-87
2022/05/23 11:51:18;;;;;;;4.43;1.58;;;;;;;29.05;20.29;99263.41;4440846;32;33323;-88
2022/05/23 11:53:45;;;;;;;4.37;1.45;;;;;;;28.79;20.55;99262.69;4440582;32;33474;-87
2022/05/23 11:56:51;;;;;;;5.78;1.70;;;;;;;28.25;21.19;99256.78;4440629;32;33382;-87
2022/05/23 11:59:23;;;;;;;5.20;1.73;;;;;;;28.55;21.78;99248.38;4453637;32;34356;-87
2022/05/23 12:02:12;;;;;;;7.28;1.70;;;;;;;28.62;21.90;99251.47;4453883;32;34810;-91
2022/05/23 12:04:42;;;;;;;6.75;1.60;;;;;;;28.59;20.88;99258.66;4441628;32;31301;-88
2022/05/23 12:07:44;;;;;;;4.05;1.50;;;;;;;28.55;20.96;99270.97;4441837;32;32534;-88
2022/05/23 12:10:25;;;;;;;6.93;2.00;;;;;;;28.40;21.12;99266.69;4441243;32;33920;-88
2022/05/23 12:13:30;;;;;;;10.23;5.40;;;;;;;28.61;21.85;99269.56;4440335;32;32216;-88
2022/05/23 12:16:28;;;;;;;8.40;5.53;;;;;;;28.65;22.17;99271.38;4440014;32;32515;-89
2022/05/23 12:19:08;;;;;;;6.37;3.33;;;;;;;28.78;21.47;99255.38;4440764;32;31994;-88
2022/05/23 12:21:36;;;;;;;4.22;1.60;;;;;;;28.84;21.89;99248.41;4440355;32;33113;-89
2022/05/23 12:24:12;;;;;;;5.28;1.20;;;;;;;28.70;21.50;99244.94;4440154;32;32329;-89
2022/05/23 12:27:03;;;;;;;2.58;1.33;;;;;;;28.67;22.81;99245.63;4431654;32;32567;-88
2022/05/23 12:29:38;;;;;;;3.20;1.30;;;;;;;28.38;22.19;99244.44;4428471;32;33166;-87
2022/05/23 12:32:26;;;;;;;4.07;1.33;;;;;;;28.15;22.02;99234.53;4427922;32;33996;-88
2022/05/23 12:34:55;;;;;;;3.10;1.15;;;;;;;28.42;22.33;99227.66;4427345;32;33783;-87
2022/05/23 12:37:29;;;;;;;4.87;1.35;;;;;;;28.36;23.52;99224.19;4440664;32;33054;-88
2022/05/23 12:40:13;;;;;;;4.62;1.48;;;;;;;28.62;22.01;99217.59;4439832;32;32427;-87
2022/05/23 12:42:48;;;;;;;4.63;1.40;;;;;;;28.70;22.40;99220.34;4440248;32;34324;-88
2022/05/23 12:45:40;;;;;;;4.75;1.60;;;;;;;28.65;22.69;99219.72;4452511;32;34815;-87
2022/05/23 12:48:29;;;;;;;3.95;1.67;;;;;;;28.68;21.84;99214.22;4439781;32;31658;-87
2022/05/23 12:51:06;;;;;;;6.12;1.60;;;;;;;28.76;22.21;99215.34;4439783;32;33298;-88
2022/05/23 12:53:40;;;;;;;7.70;2.15;;;;;;;28.54;21.50;99202.38;4441578;32;32685;-89
2022/05/23 12:56:22;;;;;;;5.25;2.05;;;;;;;28.66;21.75;99205.25;4442122;32;32314;-89
2022/05/23 12:59:39;;;;;;;9.55;6.00;;;;;;;28.35;21.99;99202.78;4430176;32;32945;-86
2022/05/23 13:02:15;;;;;;;6.20;1.75;;;;;;;28.58;22.20;99209.00;4437745;32;33972;-85
2022/05/23 13:04:49;;;;;;;5.62;1.50;;;;;;;28.43;22.54;99196.28;4456495;32;34802;-91
2022/05/23 13:07:23;;;;;;;6.05;1.65;;;;;;;28.57;22.33;99189.56;4428848;32;32335;-91
2022/05/23 13:09:54;;;;;;;5.80;2.30;;;;;;;28.66;22.35;99190.31;4454215;32;33888;-91
2022/05/23 13:12:27;;;;;;;5.50;1.80;;;;;;;28.89;22.02;99196.53;4429007;32;32958;-90